Terminal Aerodrome Forecast
Issued by NWS Cleveland, OH

Home | Current Version | Previous Version | Text Only | Print | Product List | Glossary On
Versions: 1 2 3 4 5 6 7 8 9 10 11 12 13
000
FTUS41 KCLE 050525
TAFERI
TAF
KERI 050525Z 0506/0606 19004KT P6SM FEW250
     FM051500 33006KT P6SM SCT250
     FM060300 15003KT P6SM BKN250=

USA.gov is the U.S. government's official web portal to all federal, state and local government web resources and services.